sensor_id;sensor_type;location;lat;lon;timestamp;P1;durP1;ratioP1;P2;durP2;ratioP2
67372;SDS011;54257;54.496;18.412;2023-02-28T00:01:12;78.50;;;38.80;;
67372;SDS011;54257;54.496;18.412;2023-02-28T00:03:40;87.70;;;40.80;;
67372;SDS011;54257;54.496;18.412;2023-02-28T00:06:07;72.50;;;37.90;;
67372;SDS011;54257;54.496;18.412;2023-02-28T00:08:36;76.80;;;38.70;;
67372;SDS011;54257;54.496;18.412;2023-02-28T00:11:05;83.50;;;38.70;;
67372;SDS011;54257;54.496;18.412;2023-02-28T00:13:35;80.60;;;37.20;;
67372;SDS011;54257;54.496;18.412;2023-02-28T00:16:05;83.30;;;36.20;;
67372;SDS011;54257;54.496;18.412;2023-02-28T00:18:35;65.90;;;33.30;;
67372;SDS011;54257;54.496;18.412;2023-02-28T00:21:03;65.20;;;34.40;;
67372;SDS011;54257;54.496;18.412;2023-02-28T00:23:30;73.60;;;36.80;;
67372;SDS011;54257;54.496;18.412;2023-02-28T00:25:58;77.30;;;37.30;;
67372;SDS011;54257;54.496;18.412;2023-02-28T00:28:25;75.20;;;37.00;;
67372;SDS011;54257;54.496;18.412;2023-02-28T00:30:52;81.80;;;39.60;;
67372;SDS011;54257;54.496;18.412;2023-02-28T00:33:19;67.50;;;34.10;;
67372;SDS011;54257;54.496;18.412;2023-02-28T00:35:46;71.60;;;35.80;;
67372;SDS011;54257;54.496;18.412;2023-02-28T00:38:15;73.30;;;36.00;;
67372;SDS011;54257;54.496;18.412;2023-02-28T00:40:42;76.10;;;36.80;;
67372;SDS011;54257;54.496;18.412;2023-02-28T00:43:09;76.30;;;39.30;;
67372;SDS011;54257;54.496;18.412;2023-02-28T00:45:38;70.20;;;36.70;;
67372;SDS011;54257;54.496;18.412;2023-02-28T00:48:05;91.00;;;40.50;;
67372;SDS011;54257;54.496;18.412;2023-02-28T00:50:32;88.70;;;42.00;;
67372;SDS011;54257;54.496;18.412;2023-02-28T00:52:59;94.00;;;41.70;;
67372;SDS011;54257;54.496;18.412;2023-02-28T00:55:26;99.70;;;47.10;;
67372;SDS011;54257;54.496;18.412;2023-02-28T00:57:53;115.40;;;47.90;;
67372;SDS011;54257;54.496;18.412;2023-02-28T01:00:20;111.40;;;48.50;;
67372;SDS011;54257;54.496;18.412;2023-02-28T01:02:47;100.70;;;47.30;;
67372;SDS011;54257;54.496;18.412;2023-02-28T01:05:14;108.60;;;47.10;;
67372;SDS011;54257;54.496;18.412;2023-02-28T01:07:41;99.50;;;44.70;;
67372;SDS011;54257;54.496;18.412;2023-02-28T01:10:08;99.20;;;45.50;;
67372;SDS011;54257;54.496;18.412;2023-02-28T01:12:36;106.40;;;47.20;;
67372;SDS011;54257;54.496;18.412;2023-02-28T01:15:03;95.90;;;44.40;;
67372;SDS011;54257;54.496;18.412;2023-02-28T01:17:31;102.20;;;45.30;;
67372;SDS011;54257;54.496;18.412;2023-02-28T01:19:58;92.20;;;44.60;;
67372;SDS011;54257;54.496;18.412;2023-02-28T01:22:25;83.20;;;43.70;;
67372;SDS011;54257;54.496;18.412;2023-02-28T01:24:53;82.10;;;41.90;;
67372;SDS011;54257;54.496;18.412;2023-02-28T01:27:20;80.20;;;42.10;;
67372;SDS011;54257;54.496;18.412;2023-02-28T01:29:47;97.30;;;44.10;;
67372;SDS011;54257;54.496;18.412;2023-02-28T01:32:14;98.10;;;43.30;;
67372;SDS011;54257;54.496;18.412;2023-02-28T01:34:41;86.10;;;41.90;;
67372;SDS011;54257;54.496;18.412;2023-02-28T01:37:08;87.80;;;40.10;;
67372;SDS011;54257;54.496;18.412;2023-02-28T01:39:35;89.80;;;40.10;;
67372;SDS011;54257;54.496;18.412;2023-02-28T01:42:02;83.40;;;40.30;;
67372;SDS011;54257;54.496;18.412;2023-02-28T01:47:44;82.00;;;40.00;;
67372;SDS011;54257;54.496;18.412;2023-02-28T01:50:14;76.70;;;40.00;;
67372;SDS011;54257;54.496;18.412;2023-02-28T01:52:45;81.70;;;39.80;;
67372;SDS011;54257;54.496;18.412;2023-02-28T01:55:13;76.50;;;38.30;;
67372;SDS011;54257;54.496;18.412;2023-02-28T01:57:45;88.00;;;40.20;;
67372;SDS011;54257;54.496;18.412;2023-02-28T02:00:18;76.30;;;39.30;;
67372;SDS011;54257;54.496;18.412;2023-02-28T02:02:50;75.50;;;38.40;;
67372;SDS011;54257;54.496;18.412;2023-02-28T02:05:21;72.60;;;36.70;;
67372;SDS011;54257;54.496;18.412;2023-02-28T02:07:55;74.30;;;38.10;;
67372;SDS011;54257;54.496;18.412;2023-02-28T02:10:27;74.40;;;37.30;;
67372;SDS011;54257;54.496;18.412;2023-02-28T02:13:02;75.00;;;37.20;;
67372;SDS011;54257;54.496;18.412;2023-02-28T02:37:48;71.80;;;35.90;;
67372;SDS011;54257;54.496;18.412;2023-02-28T02:40:25;65.90;;;33.90;;
67372;SDS011;54257;54.496;18.412;2023-02-28T02:43:01;70.30;;;32.90;;
67372;SDS011;54257;54.496;18.412;2023-02-28T02:45:50;63.70;;;34.50;;
67372;SDS011;54257;54.496;18.412;2023-02-28T02:48:30;62.20;;;32.20;;
67372;SDS011;54257;54.496;18.412;2023-02-28T02:51:01;64.80;;;32.10;;
67372;SDS011;54257;54.496;18.412;2023-02-28T02:53:40;62.20;;;29.60;;
67372;SDS011;54257;54.496;18.412;2023-02-28T02:56:17;60.10;;;29.80;;
67372;SDS011;54257;54.496;18.412;2023-02-28T02:58:47;58.80;;;27.70;;
67372;SDS011;54257;54.496;18.412;2023-02-28T03:01:18;65.50;;;31.10;;
67372;SDS011;54257;54.496;18.412;2023-02-28T03:04:03;57.60;;;31.10;;
67372;SDS011;54257;54.496;18.412;2023-02-28T03:06:37;60.70;;;30.30;;
67372;SDS011;54257;54.496;18.412;2023-02-28T03:09:04;54.60;;;30.60;;
67372;SDS011;54257;54.496;18.412;2023-02-28T03:11:31;57.70;;;32.30;;
67372;SDS011;54257;54.496;18.412;2023-02-28T03:17:10;61.40;;;28.50;;
67372;SDS011;54257;54.496;18.412;2023-02-28T03:22:50;54.20;;;27.10;;
67372;SDS011;54257;54.496;18.412;2023-02-28T03:30:54;52.60;;;26.50;;
67372;SDS011;54257;54.496;18.412;2023-02-28T03:33:38;55.90;;;26.50;;
67372;SDS011;54257;54.496;18.412;2023-02-28T03:36:10;52.90;;;26.20;;
67372;SDS011;54257;54.496;18.412;2023-02-28T03:38:44;49.70;;;25.90;;
67372;SDS011;54257;54.496;18.412;2023-02-28T03:41:19;53.60;;;26.00;;
67372;SDS011;54257;54.496;18.412;2023-02-28T03:43:50;50.00;;;24.40;;
67372;SDS011;54257;54.496;18.412;2023-02-28T03:46:33;40.30;;;23.40;;
67372;SDS011;54257;54.496;18.412;2023-02-28T03:49:07;44.30;;;22.70;;
67372;SDS011;54257;54.496;18.412;2023-02-28T03:51:43;49.10;;;23.50;;
67372;SDS011;54257;54.496;18.412;2023-02-28T03:54:18;40.60;;;22.60;;
67372;SDS011;54257;54.496;18.412;2023-02-28T03:59:39;45.70;;;25.30;;
67372;SDS011;54257;54.496;18.412;2023-02-28T04:02:10;43.90;;;23.60;;
67372;SDS011;54257;54.496;18.412;2023-02-28T04:04:37;45.00;;;21.90;;
67372;SDS011;54257;54.496;18.412;2023-02-28T04:07:06;38.80;;;22.00;;
67372;SDS011;54257;54.496;18.412;2023-02-28T04:09:35;40.70;;;22.00;;
67372;SDS011;54257;54.496;18.412;2023-02-28T04:12:01;46.50;;;21.20;;
67372;SDS011;54257;54.496;18.412;2023-02-28T04:14:29;38.90;;;20.80;;
67372;SDS011;54257;54.496;18.412;2023-02-28T04:16:55;39.10;;;21.40;;
67372;SDS011;54257;54.496;18.412;2023-02-28T04:19:22;38.20;;;20.50;;
67372;SDS011;54257;54.496;18.412;2023-02-28T04:21:51;36.10;;;18.70;;
67372;SDS011;54257;54.496;18.412;2023-02-28T04:24:22;38.40;;;20.40;;
67372;SDS011;54257;54.496;18.412;2023-02-28T04:26:54;41.60;;;20.40;;
67372;SDS011;54257;54.496;18.412;2023-02-28T04:29:26;35.50;;;18.10;;
67372;SDS011;54257;54.496;18.412;2023-02-28T04:31:55;37.30;;;19.70;;
67372;SDS011;54257;54.496;18.412;2023-02-28T04:34:26;34.50;;;17.20;;
67372;SDS011;54257;54.496;18.412;2023-02-28T04:36:54;40.20;;;18.40;;
67372;SDS011;54257;54.496;18.412;2023-02-28T04:39:22;35.00;;;18.80;;
67372;SDS011;54257;54.496;18.412;2023-02-28T04:41:50;31.60;;;18.00;;
67372;SDS011;54257;54.496;18.412;2023-02-28T04:44:17;36.50;;;19.30;;
67372;SDS011;54257;54.496;18.412;2023-02-28T04:46:44;37.60;;;18.70;;
67372;SDS011;54257;54.496;18.412;2023-02-28T04:49:11;32.20;;;17.30;;
67372;SDS011;54257;54.496;18.412;2023-02-28T04:51:39;28.40;;;16.10;;
67372;SDS011;54257;54.496;18.412;2023-02-28T04:54:06;32.80;;;17.50;;
67372;SDS011;54257;54.496;18.412;2023-02-28T04:56:34;28.00;;;15.80;;
67372;SDS011;54257;54.496;18.412;2023-02-28T04:59:01;34.20;;;17.30;;
67372;SDS011;54257;54.496;18.412;2023-02-28T05:01:32;30.30;;;16.70;;
67372;SDS011;54257;54.496;18.412;2023-02-28T05:04:01;34.00;;;17.70;;
67372;SDS011;54257;54.496;18.412;2023-02-28T05:06:31;33.30;;;18.00;;
67372;SDS011;54257;54.496;18.412;2023-02-28T05:08:59;28.90;;;17.20;;
67372;SDS011;54257;54.496;18.412;2023-02-28T05:11:30;30.90;;;17.20;;
67372;SDS011;54257;54.496;18.412;2023-02-28T05:14:02;29.00;;;16.20;;
67372;SDS011;54257;54.496;18.412;2023-02-28T05:16:30;29.20;;;17.60;;
67372;SDS011;54257;54.496;18.412;2023-02-28T05:18:57;30.90;;;15.80;;
67372;SDS011;54257;54.496;18.412;2023-02-28T05:24:00;28.30;;;15.70;;
67372;SDS011;54257;54.496;18.412;2023-02-28T05:26:29;30.10;;;14.50;;
67372;SDS011;54257;54.496;18.412;2023-02-28T05:28:57;29.40;;;14.40;;
67372;SDS011;54257;54.496;18.412;2023-02-28T05:31:24;29.60;;;15.50;;
67372;SDS011;54257;54.496;18.412;2023-02-28T05:33:51;26.20;;;14.20;;
67372;SDS011;54257;54.496;18.412;2023-02-28T05:36:18;29.60;;;15.30;;
67372;SDS011;54257;54.496;18.412;2023-02-28T05:38:49;30.70;;;14.40;;
67372;SDS011;54257;54.496;18.412;2023-02-28T05:41:17;25.20;;;14.00;;
67372;SDS011;54257;54.496;18.412;2023-02-28T05:43:47;27.60;;;15.40;;
67372;SDS011;54257;54.496;18.412;2023-02-28T05:46:15;29.00;;;14.50;;
67372;SDS011;54257;54.496;18.412;2023-02-28T05:48:42;28.90;;;15.80;;
67372;SDS011;54257;54.496;18.412;2023-02-28T05:51:17;25.50;;;13.50;;
67372;SDS011;54257;54.496;18.412;2023-02-28T05:53:44;24.30;;;13.80;;
67372;SDS011;54257;54.496;18.412;2023-02-28T05:56:11;28.40;;;15.40;;
67372;SDS011;54257;54.496;18.412;2023-02-28T05:58:38;27.30;;;14.20;;
67372;SDS011;54257;54.496;18.412;2023-02-28T06:01:21;26.30;;;13.60;;
67372;SDS011;54257;54.496;18.412;2023-02-28T06:04:00;28.30;;;14.30;;
67372;SDS011;54257;54.496;18.412;2023-02-28T06:06:28;32.80;;;18.70;;
67372;SDS011;54257;54.496;18.412;2023-02-28T06:08:56;103.10;;;55.00;;
67372;SDS011;54257;54.496;18.412;2023-02-28T06:11:23;50.30;;;27.30;;
67372;SDS011;54257;54.496;18.412;2023-02-28T06:13:56;57.90;;;32.40;;
67372;SDS011;54257;54.496;18.412;2023-02-28T06:16:26;47.70;;;27.20;;
67372;SDS011;54257;54.496;18.412;2023-02-28T06:18:54;34.00;;;19.60;;
67372;SDS011;54257;54.496;18.412;2023-02-28T06:21:23;28.90;;;15.10;;
67372;SDS011;54257;54.496;18.412;2023-02-28T06:23:53;28.10;;;15.70;;
67372;SDS011;54257;54.496;18.412;2023-02-28T06:26:23;24.10;;;13.30;;
67372;SDS011;54257;54.496;18.412;2023-02-28T06:28:51;26.50;;;14.10;;
67372;SDS011;54257;54.496;18.412;2023-02-28T06:31:25;25.40;;;13.90;;
67372;SDS011;54257;54.496;18.412;2023-02-28T06:33:52;19.30;;;13.40;;
67372;SDS011;54257;54.496;18.412;2023-02-28T06:36:19;27.40;;;16.30;;
67372;SDS011;54257;54.496;18.412;2023-02-28T06:38:48;36.00;;;19.20;;
67372;SDS011;54257;54.496;18.412;2023-02-28T06:41:22;60.60;;;32.30;;
67372;SDS011;54257;54.496;18.412;2023-02-28T06:43:51;72.90;;;37.00;;
67372;SDS011;54257;54.496;18.412;2023-02-28T06:46:20;73.40;;;36.40;;
67372;SDS011;54257;54.496;18.412;2023-02-28T06:48:47;76.80;;;35.20;;
67372;SDS011;54257;54.496;18.412;2023-02-28T06:54:31;31.40;;;16.70;;
67372;SDS011;54257;54.496;18.412;2023-02-28T06:57:11;30.80;;;17.20;;
67372;SDS011;54257;54.496;18.412;2023-02-28T06:59:52;30.50;;;16.80;;
67372;SDS011;54257;54.496;18.412;2023-02-28T07:02:26;31.60;;;16.70;;
67372;SDS011;54257;54.496;18.412;2023-02-28T07:09:45;22.80;;;13.60;;
67372;SDS011;54257;54.496;18.412;2023-02-28T07:16:48;26.20;;;13.40;;
67372;SDS011;54257;54.496;18.412;2023-02-28T07:19:30;23.80;;;13.30;;
67372;SDS011;54257;54.496;18.412;2023-02-28T07:21:58;23.50;;;13.70;;
67372;SDS011;54257;54.496;18.412;2023-02-28T07:24:25;18.00;;;11.40;;
67372;SDS011;54257;54.496;18.412;2023-02-28T07:27:25;17.40;;;11.90;;
67372;SDS011;54257;54.496;18.412;2023-02-28T07:29:52;26.20;;;17.90;;
67372;SDS011;54257;54.496;18.412;2023-02-28T07:32:21;29.70;;;20.40;;
67372;SDS011;54257;54.496;18.412;2023-02-28T07:34:48;35.60;;;21.50;;
67372;SDS011;54257;54.496;18.412;2023-02-28T07:37:15;38.20;;;22.30;;
67372;SDS011;54257;54.496;18.412;2023-02-28T07:39:42;25.10;;;15.90;;
67372;SDS011;54257;54.496;18.412;2023-02-28T07:42:11;30.80;;;19.00;;
67372;SDS011;54257;54.496;18.412;2023-02-28T07:44:39;24.90;;;15.80;;
67372;SDS011;54257;54.496;18.412;2023-02-28T07:47:07;18.60;;;11.20;;
67372;SDS011;54257;54.496;18.412;2023-02-28T07:49:35;18.70;;;11.60;;
67372;SDS011;54257;54.496;18.412;2023-02-28T07:52:06;19.20;;;12.60;;
67372;SDS011;54257;54.496;18.412;2023-02-28T07:54:33;25.20;;;15.60;;
67372;SDS011;54257;54.496;18.412;2023-02-28T07:57:01;42.30;;;26.40;;
67372;SDS011;54257;54.496;18.412;2023-02-28T07:59:28;37.70;;;24.10;;
67372;SDS011;54257;54.496;18.412;2023-02-28T08:01:56;31.10;;;18.30;;
67372;SDS011;54257;54.496;18.412;2023-02-28T08:04:24;23.20;;;15.50;;
67372;SDS011;54257;54.496;18.412;2023-02-28T08:06:52;16.20;;;9.80;;
67372;SDS011;54257;54.496;18.412;2023-02-28T08:09:19;9.10;;;5.80;;
67372;SDS011;54257;54.496;18.412;2023-02-28T08:11:46;9.30;;;5.90;;
67372;SDS011;54257;54.496;18.412;2023-02-28T08:14:13;15.20;;;10.90;;
67372;SDS011;54257;54.496;18.412;2023-02-28T08:16:40;21.00;;;14.10;;
67372;SDS011;54257;54.496;18.412;2023-02-28T08:19:08;10.50;;;7.20;;
67372;SDS011;54257;54.496;18.412;2023-02-28T08:21:35;8.80;;;5.80;;
67372;SDS011;54257;54.496;18.412;2023-02-28T08:24:02;8.50;;;5.10;;
67372;SDS011;54257;54.496;18.412;2023-02-28T08:26:29;7.80;;;5.10;;
67372;SDS011;54257;54.496;18.412;2023-02-28T08:28:56;8.10;;;4.40;;
67372;SDS011;54257;54.496;18.412;2023-02-28T08:31:23;8.10;;;5.80;;
67372;SDS011;54257;54.496;18.412;2023-02-28T08:33:50;13.40;;;9.50;;
67372;SDS011;54257;54.496;18.412;2023-02-28T08:36:22;15.80;;;10.70;;
67372;SDS011;54257;54.496;18.412;2023-02-28T08:38:56;14.20;;;10.40;;
67372;SDS011;54257;54.496;18.412;2023-02-28T08:41:24;14.30;;;10.70;;
67372;SDS011;54257;54.496;18.412;2023-02-28T08:43:52;9.20;;;4.90;;
67372;SDS011;54257;54.496;18.412;2023-02-28T08:46:20;5.50;;;3.50;;
67372;SDS011;54257;54.496;18.412;2023-02-28T08:48:51;6.70;;;4.50;;
67372;SDS011;54257;54.496;18.412;2023-02-28T08:51:19;6.20;;;3.70;;
67372;SDS011;54257;54.496;18.412;2023-02-28T08:56:20;8.90;;;5.20;;
67372;SDS011;54257;54.496;18.412;2023-02-28T08:58:49;4.80;;;3.30;;
67372;SDS011;54257;54.496;18.412;2023-02-28T09:01:18;4.90;;;2.70;;
67372;SDS011;54257;54.496;18.412;2023-02-28T09:03:47;4.40;;;2.80;;
67372;SDS011;54257;54.496;18.412;2023-02-28T09:06:16;6.00;;;3.20;;
67372;SDS011;54257;54.496;18.412;2023-02-28T09:08:44;3.50;;;2.40;;
67372;SDS011;54257;54.496;18.412;2023-02-28T09:11:11;5.60;;;3.00;;
67372;SDS011;54257;54.496;18.412;2023-02-28T09:13:38;4.10;;;3.00;;
67372;SDS011;54257;54.496;18.412;2023-02-28T09:16:07;4.40;;;2.30;;
67372;SDS011;54257;54.496;18.412;2023-02-28T09:18:37;3.60;;;2.80;;
67372;SDS011;54257;54.496;18.412;2023-02-28T09:21:05;6.10;;;2.40;;
67372;SDS011;54257;54.496;18.412;2023-02-28T09:23:34;4.00;;;2.10;;
67372;SDS011;54257;54.496;18.412;2023-02-28T09:26:04;3.20;;;2.30;;
67372;SDS011;54257;54.496;18.412;2023-02-28T09:28:31;4.50;;;2.80;;
67372;SDS011;54257;54.496;18.412;2023-02-28T09:30:58;5.70;;;2.70;;
67372;SDS011;54257;54.496;18.412;2023-02-28T09:33:26;4.90;;;3.20;;
67372;SDS011;54257;54.496;18.412;2023-02-28T09:35:58;5.90;;;3.00;;
67372;SDS011;54257;54.496;18.412;2023-02-28T09:38:28;3.90;;;2.60;;
67372;SDS011;54257;54.496;18.412;2023-02-28T09:40:59;4.20;;;2.50;;
67372;SDS011;54257;54.496;18.412;2023-02-28T09:43:30;6.50;;;2.90;;
67372;SDS011;54257;54.496;18.412;2023-02-28T09:48:47;4.60;;;3.00;;
67372;SDS011;54257;54.496;18.412;2023-02-28T09:51:28;5.50;;;3.10;;
67372;SDS011;54257;54.496;18.412;2023-02-28T09:54:02;6.00;;;3.20;;
67372;SDS011;54257;54.496;18.412;2023-02-28T09:56:39;6.10;;;2.90;;
67372;SDS011;54257;54.496;18.412;2023-02-28T10:10:14;6.30;;;4.00;;
67372;SDS011;54257;54.496;18.412;2023-02-28T10:13:13;5.10;;;3.30;;
67372;SDS011;54257;54.496;18.412;2023-02-28T10:15:45;5.90;;;3.60;;
67372;SDS011;54257;54.496;18.412;2023-02-28T10:18:16;5.90;;;3.90;;
67372;SDS011;54257;54.496;18.412;2023-02-28T10:20:51;6.50;;;3.70;;
67372;SDS011;54257;54.496;18.412;2023-02-28T10:23:20;5.90;;;3.80;;
67372;SDS011;54257;54.496;18.412;2023-02-28T10:26:11;5.90;;;3.80;;
67372;SDS011;54257;54.496;18.412;2023-02-28T10:28:39;4.90;;;3.60;;
67372;SDS011;54257;54.496;18.412;2023-02-28T10:31:34;5.00;;;3.30;;
67372;SDS011;54257;54.496;18.412;2023-02-28T10:34:16;5.00;;;3.80;;
67372;SDS011;54257;54.496;18.412;2023-02-28T10:37:05;5.10;;;3.20;;
67372;SDS011;54257;54.496;18.412;2023-02-28T10:39:45;5.10;;;3.10;;
67372;SDS011;54257;54.496;18.412;2023-02-28T10:42:27;3.70;;;3.00;;
67372;SDS011;54257;54.496;18.412;2023-02-28T10:50:43;5.40;;;3.30;;
67372;SDS011;54257;54.496;18.412;2023-02-28T10:56:03;6.20;;;3.10;;
67372;SDS011;54257;54.496;18.412;2023-02-28T10:58:42;3.70;;;2.80;;
67372;SDS011;54257;54.496;18.412;2023-02-28T11:01:38;13.20;;;9.30;;
67372;SDS011;54257;54.496;18.412;2023-02-28T11:07:03;11.80;;;7.90;;
67372;SDS011;54257;54.496;18.412;2023-02-28T11:09:45;8.90;;;5.90;;
67372;SDS011;54257;54.496;18.412;2023-02-28T11:14:53;3.10;;;2.20;;
67372;SDS011;54257;54.496;18.412;2023-02-28T11:17:30;3.10;;;2.70;;
67372;SDS011;54257;54.496;18.412;2023-02-28T11:20:01;5.80;;;4.00;;
67372;SDS011;54257;54.496;18.412;2023-02-28T11:22:38;4.00;;;3.20;;
67372;SDS011;54257;54.496;18.412;2023-02-28T11:25:21;5.30;;;3.60;;
67372;SDS011;54257;54.496;18.412;2023-02-28T11:27:56;3.60;;;2.80;;
67372;SDS011;54257;54.496;18.412;2023-02-28T11:35:53;2.30;;;1.80;;
67372;SDS011;54257;54.496;18.412;2023-02-28T11:38:28;2.50;;;1.70;;
67372;SDS011;54257;54.496;18.412;2023-02-28T11:43:43;3.30;;;2.10;;
67372;SDS011;54257;54.496;18.412;2023-02-28T11:46:31;2.80;;;2.10;;
67372;SDS011;54257;54.496;18.412;2023-02-28T11:52:48;3.90;;;1.50;;
67372;SDS011;54257;54.496;18.412;2023-02-28T11:55:36;1.50;;;1.30;;
67372;SDS011;54257;54.496;18.412;2023-02-28T11:58:21;2.80;;;1.60;;
67372;SDS011;54257;54.496;18.412;2023-02-28T12:01:17;3.30;;;1.90;;
67372;SDS011;54257;54.496;18.412;2023-02-28T12:07:00;3.20;;;2.60;;
67372;SDS011;54257;54.496;18.412;2023-02-28T12:09:40;4.60;;;2.60;;
67372;SDS011;54257;54.496;18.412;2023-02-28T12:12:50;3.70;;;3.10;;
67372;SDS011;54257;54.496;18.412;2023-02-28T12:19:35;9.70;;;6.70;;
67372;SDS011;54257;54.496;18.412;2023-02-28T12:22:30;4.00;;;2.60;;
67372;SDS011;54257;54.496;18.412;2023-02-28T12:25:20;2.40;;;1.60;;
67372;SDS011;54257;54.496;18.412;2023-02-28T12:28:05;3.30;;;2.10;;
67372;SDS011;54257;54.496;18.412;2023-02-28T12:33:12;4.20;;;2.30;;
67372;SDS011;54257;54.496;18.412;2023-02-28T12:35:51;4.90;;;3.20;;
67372;SDS011;54257;54.496;18.412;2023-02-28T12:41:00;2.50;;;2.20;;
67372;SDS011;54257;54.496;18.412;2023-02-28T12:43:42;2.90;;;2.00;;
67372;SDS011;54257;54.496;18.412;2023-02-28T12:46:17;4.80;;;2.60;;
67372;SDS011;54257;54.496;18.412;2023-02-28T12:48:53;6.90;;;4.10;;
67372;SDS011;54257;54.496;18.412;2023-02-28T12:51:24;9.20;;;5.40;;
67372;SDS011;54257;54.496;18.412;2023-02-28T12:54:02;8.40;;;4.10;;
67372;SDS011;54257;54.496;18.412;2023-02-28T13:01:54;9.80;;;7.20;;
67372;SDS011;54257;54.496;18.412;2023-02-28T13:09:56;3.70;;;3.20;;
67372;SDS011;54257;54.496;18.412;2023-02-28T13:12:26;6.10;;;3.50;;
67372;SDS011;54257;54.496;18.412;2023-02-28T13:17:51;4.20;;;2.70;;
67372;SDS011;54257;54.496;18.412;2023-02-28T13:20:21;4.60;;;3.20;;
67372;SDS011;54257;54.496;18.412;2023-02-28T13:22:54;5.50;;;3.50;;
67372;SDS011;54257;54.496;18.412;2023-02-28T13:27:50;37.60;;;15.30;;
67372;SDS011;54257;54.496;18.412;2023-02-28T13:33:29;4.60;;;2.90;;
67372;SDS011;54257;54.496;18.412;2023-02-28T13:38:44;168.10;;;57.40;;
67372;SDS011;54257;54.496;18.412;2023-02-28T13:57:39;113.60;;;37.60;;
67372;SDS011;54257;54.496;18.412;2023-02-28T14:05:32;8.30;;;4.90;;
67372;SDS011;54257;54.496;18.412;2023-02-28T14:08:13;8.20;;;3.80;;
67372;SDS011;54257;54.496;18.412;2023-02-28T14:10:45;9.70;;;4.10;;
67372;SDS011;54257;54.496;18.412;2023-02-28T14:15:55;5.50;;;4.00;;
67372;SDS011;54257;54.496;18.412;2023-02-28T14:18:26;6.10;;;4.60;;
67372;SDS011;54257;54.496;18.412;2023-02-28T14:32:01;9.50;;;5.00;;
67372;SDS011;54257;54.496;18.412;2023-02-28T14:37:41;5.70;;;3.40;;
67372;SDS011;54257;54.496;18.412;2023-02-28T14:40:15;5.50;;;2.90;;
67372;SDS011;54257;54.496;18.412;2023-02-28T14:42:57;6.30;;;3.70;;
67372;SDS011;54257;54.496;18.412;2023-02-28T14:45:30;4.80;;;3.30;;
67372;SDS011;54257;54.496;18.412;2023-02-28T14:48:01;4.60;;;2.80;;
67372;SDS011;54257;54.496;18.412;2023-02-28T14:50:32;5.60;;;2.80;;
67372;SDS011;54257;54.496;18.412;2023-02-28T14:53:02;6.40;;;3.30;;
67372;SDS011;54257;54.496;18.412;2023-02-28T14:55:36;5.00;;;2.80;;
67372;SDS011;54257;54.496;18.412;2023-02-28T14:58:04;4.00;;;3.00;;
67372;SDS011;54257;54.496;18.412;2023-02-28T15:00:34;5.80;;;3.00;;
67372;SDS011;54257;54.496;18.412;2023-02-28T15:03:20;4.10;;;3.00;;
67372;SDS011;54257;54.496;18.412;2023-02-28T15:06:11;5.70;;;2.80;;
67372;SDS011;54257;54.496;18.412;2023-02-28T15:08:40;5.40;;;3.30;;
67372;SDS011;54257;54.496;18.412;2023-02-28T15:11:08;5.30;;;3.80;;
67372;SDS011;54257;54.496;18.412;2023-02-28T15:13:43;5.30;;;3.40;;
67372;SDS011;54257;54.496;18.412;2023-02-28T15:16:13;6.40;;;3.20;;
67372;SDS011;54257;54.496;18.412;2023-02-28T15:18:56;4.80;;;3.10;;
67372;SDS011;54257;54.496;18.412;2023-02-28T15:21:30;7.20;;;3.40;;
67372;SDS011;54257;54.496;18.412;2023-02-28T15:26:41;4.00;;;2.70;;
67372;SDS011;54257;54.496;18.412;2023-02-28T15:31:46;5.90;;;3.30;;
67372;SDS011;54257;54.496;18.412;2023-02-28T15:34:21;5.10;;;2.60;;
67372;SDS011;54257;54.496;18.412;2023-02-28T15:36:53;5.80;;;2.80;;
67372;SDS011;54257;54.496;18.412;2023-02-28T15:39:22;3.50;;;2.90;;
67372;SDS011;54257;54.496;18.412;2023-02-28T15:42:12;6.20;;;3.10;;
67372;SDS011;54257;54.496;18.412;2023-02-28T15:44:45;5.60;;;3.10;;
67372;SDS011;54257;54.496;18.412;2023-02-28T15:49:51;8.60;;;3.90;;
67372;SDS011;54257;54.496;18.412;2023-02-28T15:52:37;3.80;;;2.80;;
67372;SDS011;54257;54.496;18.412;2023-02-28T15:55:11;4.90;;;3.10;;
67372;SDS011;54257;54.496;18.412;2023-02-28T15:57:48;4.90;;;3.10;;
67372;SDS011;54257;54.496;18.412;2023-02-28T16:00:19;5.80;;;3.30;;
67372;SDS011;54257;54.496;18.412;2023-02-28T16:02:49;5.60;;;3.40;;
67372;SDS011;54257;54.496;18.412;2023-02-28T16:05:21;8.40;;;4.30;;
67372;SDS011;54257;54.496;18.412;2023-02-28T16:08:00;7.40;;;3.90;;
67372;SDS011;54257;54.496;18.412;2023-02-28T16:10:38;7.10;;;3.90;;
67372;SDS011;54257;54.496;18.412;2023-02-28T16:13:05;7.10;;;4.60;;
67372;SDS011;54257;54.496;18.412;2023-02-28T16:15:39;9.80;;;4.60;;
67372;SDS011;54257;54.496;18.412;2023-02-28T16:18:10;7.60;;;4.80;;
67372;SDS011;54257;54.496;18.412;2023-02-28T16:20:38;9.40;;;5.30;;
67372;SDS011;54257;54.496;18.412;2023-02-28T16:23:06;9.80;;;5.60;;
67372;SDS011;54257;54.496;18.412;2023-02-28T16:25:55;9.40;;;5.80;;
67372;SDS011;54257;54.496;18.412;2023-02-28T16:28:25;10.70;;;5.30;;
67372;SDS011;54257;54.496;18.412;2023-02-28T16:30:59;12.10;;;6.20;;
67372;SDS011;54257;54.496;18.412;2023-02-28T16:33:31;13.80;;;7.10;;
67372;SDS011;54257;54.496;18.412;2023-02-28T16:36:00;9.90;;;6.70;;
67372;SDS011;54257;54.496;18.412;2023-02-28T16:38:29;11.10;;;6.70;;
67372;SDS011;54257;54.496;18.412;2023-02-28T16:41:02;12.00;;;6.60;;
67372;SDS011;54257;54.496;18.412;2023-02-28T16:43:29;14.30;;;7.60;;
67372;SDS011;54257;54.496;18.412;2023-02-28T16:45:57;13.60;;;9.00;;
67372;SDS011;54257;54.496;18.412;2023-02-28T16:48:25;15.80;;;8.90;;
67372;SDS011;54257;54.496;18.412;2023-02-28T16:50:52;17.00;;;8.80;;
67372;SDS011;54257;54.496;18.412;2023-02-28T16:53:20;15.00;;;10.00;;
67372;SDS011;54257;54.496;18.412;2023-02-28T16:55:49;15.50;;;9.40;;
67372;SDS011;54257;54.496;18.412;2023-02-28T16:58:19;16.90;;;8.90;;
67372;SDS011;54257;54.496;18.412;2023-02-28T17:00:48;19.50;;;10.10;;
67372;SDS011;54257;54.496;18.412;2023-02-28T17:03:20;16.30;;;10.20;;
67372;SDS011;54257;54.496;18.412;2023-02-28T17:05:51;19.30;;;9.90;;
67372;SDS011;54257;54.496;18.412;2023-02-28T17:08:18;18.80;;;10.10;;
67372;SDS011;54257;54.496;18.412;2023-02-28T17:10:46;20.20;;;11.10;;
67372;SDS011;54257;54.496;18.412;2023-02-28T17:13:14;18.40;;;10.40;;
67372;SDS011;54257;54.496;18.412;2023-02-28T17:15:42;20.10;;;11.20;;
67372;SDS011;54257;54.496;18.412;2023-02-28T17:18:15;20.30;;;11.50;;
67372;SDS011;54257;54.496;18.412;2023-02-28T17:20:45;19.20;;;10.90;;
67372;SDS011;54257;54.496;18.412;2023-02-28T17:23:13;18.40;;;9.40;;
67372;SDS011;54257;54.496;18.412;2023-02-28T17:25:40;14.00;;;8.10;;
67372;SDS011;54257;54.496;18.412;2023-02-28T17:28:08;14.70;;;7.70;;
67372;SDS011;54257;54.496;18.412;2023-02-28T17:30:35;11.90;;;7.10;;
67372;SDS011;54257;54.496;18.412;2023-02-28T17:33:03;11.50;;;6.00;;
67372;SDS011;54257;54.496;18.412;2023-02-28T17:35:38;9.10;;;5.40;;
67372;SDS011;54257;54.496;18.412;2023-02-28T17:38:15;12.30;;;6.00;;
67372;SDS011;54257;54.496;18.412;2023-02-28T17:40:46;10.40;;;5.50;;
67372;SDS011;54257;54.496;18.412;2023-02-28T17:43:15;9.50;;;5.70;;